Saint-Vith, Belgium
Current Conditions -  °F | °C
As of 5:28 AM on Friday 19 Dec 2014 (Local Time) from ETAD Reporting Station
Overcast Overcast  
Wind Chill: 42°   Ceiling: 800
Heat Index: 48°   Visibility: 6mi
Dew Point: 46°   Wind: 17mph
Humidity: 93%   Direction: 220°SW
Pressure: 30.02"   Gusts: NA
Location:  50.28°N, 6.13°E
Report Text: ETAD 190428Z AUTO 22015KT 9999 OVC008 09/08 A3002 RMK AO2 $
Loading
Personal Weather Stations






























Interactive Weather Map New forecast layout! Learn more

10-Day Weather Forecast

Advertisements
Track Severe Weather on mobile